This is the latest recevied weather packets stored in our database for station/object K3HW. If no packets are shown the sender has not sent any weather packets the latest 10 day(s).
| Time | Temp. | Humidity | Pressure | Rain* | Wind** | Luminosity | Snow |
|---|---|---|---|---|---|---|---|
| 1777378755 | 10° C | 71% | 1025.2 hPa | 0 mm | - | 52 W/m² | - |
| 1777378148 | 9.44° C | 74% | 1025 hPa | 0 mm | - | 39 W/m² | - |
| 1777377841 | 8.89° C | 74% | 1025.2 hPa | 0 mm | - | 35 W/m² | - |
| 1777376328 | 7.22° C | 79% | 1025.6 hPa | 0 mm | - | 31 W/m² | - |
| 1777374814 | 5.56° C | 88% | 1025.7 hPa | 0 mm | - | 19 W/m² | - |
| 1777374208 | 4.44° C | 89% | 1025.5 hPa | 0 mm | - | 19 W/m² | - |
| 1777373601 | 3.89° C | 90% | 1025.5 hPa | 0 mm | - | 15 W/m² | - |
| 1777372688 | 3.33° C | 89% | 1025.2 hPa | 0 mm | - | 11 W/m² | - |
| 1777372387 | 3.33° C | 89% | 1025.6 hPa | 0 mm | - | 10 W/m² | - |
| 1777372086 | 2.78° C | 89% | 1025.4 hPa | 0 mm | - | 8 W/m² | - |
| 1777371781 | 2.78° C | 89% | 1025.4 hPa | 0 mm | - | 6 W/m² | - |
| 1777371478 | 2.78° C | 89% | 1025.3 hPa | 0 mm | - | 4 W/m² | - |
| 1777371174 | 2.78° C | 89% | 1025.5 hPa | 0 mm | - | 3 W/m² | - |
| 1777370871 | 2.78° C | 89% | 1025.3 hPa | 0 mm | - | 2 W/m² | - |
| 1777370567 | 2.78° C | 89% | 1025.1 hPa | 0 mm | - | 1 W/m² | - |
| 1777370263 | 2.78° C | 89% | 1025.1 hPa | 0 mm | - | 0 W/m² | - |
| 1777369656 | 2.78° C | 89% | 1025.2 hPa | 0 mm | - | 0 W/m² | - |
| 1777369051 | 3.33° C | 88% | 1025.3 hPa | 0 mm | - | 0 W/m² | - |
| 1777368750 | 3.33° C | 88% | 1025.3 hPa | 0 mm | - | 0 W/m² | - |
| 1777368445 | 3.33° C | 88% | 1025.3 hPa | 0 mm | - | 0 W/m² | - |
| 1777367839 | 3.33° C | 88% | 1025.5 hPa | 0 mm | - | 0 W/m² | - |
| 1777367230 | 3.89° C | 88% | 1025.7 hPa | 0 mm | - | 0 W/m² | - |
| 1777365414 | 3.89° C | 87% | 1025.9 hPa | 0 mm | - | 0 W/m² | - |
| 1777365111 | 4.44° C | 87% | 1025.8 hPa | 0 mm | - | 0 W/m² | - |
| 1777364806 | 4.44° C | 87% | 1026 hPa | 0 mm | - | 0 W/m² | - |
* Rain latest hour (hover to see other rain measurements)
** Current wind speed in m/s (hover to see current wind gust speed)